createdAt,value
2023-08-12T00:02:24.464Z,78.50
2023-08-12T00:07:25.916Z,78.30
2023-08-12T00:12:27.664Z,78.47
2023-08-12T00:17:29.256Z,78.53
2023-08-12T00:22:30.725Z,78.74
2023-08-12T00:27:32.245Z,78.95
2023-08-12T00:32:33.790Z,79.18
2023-08-12T00:37:35.240Z,79.52
2023-08-12T00:42:36.737Z,79.69
2023-08-12T00:47:38.617Z,80.17
2023-08-12T00:52:41.272Z,80.48
2023-08-12T00:57:42.807Z,81.11
2023-08-12T01:02:49.256Z,81.63
2023-08-12T01:07:51.044Z,81.89
2023-08-12T01:13:07.901Z,82.73
2023-08-12T01:18:10.544Z,82.99
2023-08-12T01:23:15.756Z,83.56
2023-08-12T01:28:17.272Z,83.35
2023-08-12T01:33:43.456Z,83.88
2023-08-12T01:38:48.019Z,83.65
2023-08-12T01:43:49.596Z,84.06
2023-08-12T01:48:51.150Z,84.35
2023-08-12T01:53:52.641Z,85.10
2023-08-12T01:58:54.148Z,84.39
2023-08-12T02:03:55.719Z,84.23
2023-08-12T02:08:57.419Z,84.25
2023-08-12T02:13:58.877Z,84.96
2023-08-12T02:19:00.349Z,84.76
2023-08-12T02:24:01.839Z,85.08
2023-08-12T02:29:03.356Z,85.43
2023-08-12T02:34:05.012Z,85.76
2023-08-12T02:39:06.469Z,85.70
2023-08-12T02:44:07.914Z,86.64
2023-08-12T02:49:09.409Z,86.22
2023-08-12T02:54:10.895Z,87.12
2023-08-12T02:59:12.364Z,86.57
2023-08-12T03:04:13.868Z,86.68
2023-08-12T03:09:17.597Z,86.57
2023-08-12T03:14:19.277Z,86.44
2023-08-12T03:19:20.725Z,86.51
2023-08-12T03:24:22.628Z,86.46
2023-08-12T03:29:24.171Z,86.72
2023-08-12T03:34:25.634Z,86.58
2023-08-12T03:39:27.194Z,86.61
2023-08-12T03:44:28.701Z,86.60
2023-08-12T03:49:30.239Z,86.39
2023-08-12T03:54:31.695Z,86.58
2023-08-12T03:59:33.187Z,86.54
2023-08-12T04:04:34.682Z,86.46
2023-08-12T04:09:36.144Z,86.81
2023-08-12T04:14:37.634Z,86.56
2023-08-12T04:19:39.891Z,86.03
2023-08-12T04:24:41.715Z,86.74
2023-08-12T04:29:43.774Z,86.55
2023-08-12T04:34:46.920Z,86.52
2023-08-12T04:39:48.561Z,87.04
2023-08-12T04:44:50.171Z,87.10
2023-08-12T04:49:51.665Z,87.27
2023-08-12T04:54:56.228Z,87.59
2023-08-12T04:59:57.912Z,87.29
2023-08-12T05:04:59.501Z,87.39
2023-08-12T05:10:01.031Z,87.21
2023-08-12T05:15:02.663Z,86.71
2023-08-12T05:20:04.842Z,85.99
2023-08-12T05:25:06.636Z,84.90
2023-08-12T05:30:08.483Z,85.09
2023-08-12T05:35:10.223Z,84.38
2023-08-12T05:40:12.643Z,84.00
2023-08-12T05:45:14.234Z,83.21
2023-08-12T05:50:15.791Z,82.83
2023-08-12T05:55:17.324Z,83.03
2023-08-12T06:00:18.800Z,80.50
2023-08-12T06:05:20.322Z,79.04
2023-08-12T06:10:21.768Z,78.87
2023-08-12T06:15:23.407Z,78.15
2023-08-12T06:20:25.692Z,75.67
2023-08-12T06:25:27.178Z,74.51
2023-08-12T06:30:28.884Z,73.48
2023-08-12T06:35:30.578Z,71.49
2023-08-12T06:40:33.125Z,72.29
2023-08-12T06:45:34.608Z,70.18
2023-08-12T06:50:36.120Z,70.82
2023-08-12T06:55:37.580Z,68.66
2023-08-12T07:00:39.061Z,66.33
2023-08-12T07:05:40.533Z,67.97
2023-08-12T07:10:42.686Z,66.88
2023-08-12T07:15:44.770Z,65.96
2023-08-12T07:20:46.264Z,65.92
2023-08-12T07:25:48.170Z,65.65
2023-08-12T07:30:50.621Z,64.63
2023-08-12T07:35:52.202Z,65.63
2023-08-12T07:40:54.973Z,65.81
2023-08-12T07:46:08.420Z,65.37
2023-08-12T07:51:11.651Z,65.13
2023-08-12T07:56:13.133Z,63.65
2023-08-12T08:01:14.930Z,63.78
2023-08-12T08:06:16.498Z,62.79
2023-08-12T08:11:18.005Z,61.46
2023-08-12T08:16:19.520Z,61.10
2023-08-12T08:21:21.077Z,61.28
2023-08-12T08:26:22.555Z,60.68
2023-08-12T08:31:24.011Z,60.09
2023-08-12T08:36:25.749Z,59.60
2023-08-12T08:41:31.308Z,59.43
2023-08-12T08:46:32.810Z,58.02
2023-08-12T08:51:34.357Z,56.61
2023-08-12T08:56:40.607Z,56.62
2023-08-12T09:01:53.146Z,58.21
2023-08-12T09:06:54.961Z,55.32
2023-08-12T09:11:56.711Z,57.44
2023-08-12T09:16:59.858Z,55.81
2023-08-12T09:22:04.407Z,55.19
2023-08-12T09:27:05.875Z,54.59
2023-08-12T09:32:18.394Z,54.23
2023-08-12T09:37:21.514Z,52.16
2023-08-12T09:42:22.966Z,54.98
2023-08-12T09:47:27.187Z,53.13
2023-08-12T09:52:28.731Z,51.64
2023-08-12T09:57:34.339Z,53.08
2023-08-12T10:02:36.080Z,51.55
2023-08-12T10:07:37.570Z,50.73
2023-08-12T10:12:39.327Z,52.72
2023-08-12T10:17:44.017Z,50.27
2023-08-12T10:22:46.274Z,49.56
2023-08-12T10:27:47.724Z,50.52
2023-08-12T10:32:50.008Z,49.77
2023-08-12T10:37:51.954Z,49.46
2023-08-12T10:42:53.536Z,49.43
2023-08-12T10:48:18.106Z,50.56
2023-08-12T10:53:33.121Z,49.27
2023-08-12T10:58:48.185Z,48.37
2023-08-12T11:03:50.288Z,49.16
2023-08-12T11:08:53.935Z,50.52
2023-08-12T11:13:57.853Z,47.77
2023-08-12T11:19:00.411Z,48.44
2023-08-12T11:24:02.253Z,49.15
2023-08-12T11:29:09.972Z,48.29
2023-08-12T11:34:11.534Z,49.11
2023-08-12T11:39:13.114Z,49.29
2023-08-12T11:44:17.062Z,49.83
2023-08-12T11:49:19.240Z,48.67
2023-08-12T11:54:21.461Z,48.12
2023-08-12T11:59:23.427Z,48.06
2023-08-12T12:04:25.358Z,47.97
2023-08-12T12:09:27.687Z,47.41
2023-08-12T12:14:29.580Z,49.42
2023-08-12T12:19:31.105Z,49.04
2023-08-12T12:24:47.365Z,48.57
2023-08-12T12:29:48.842Z,47.08
2023-08-12T12:34:50.682Z,48.10
2023-08-12T12:39:52.203Z,48.48
2023-08-12T12:44:53.647Z,47.58
2023-08-12T12:49:55.180Z,47.19
2023-08-12T12:54:58.608Z,47.69
2023-08-12T13:00:00.256Z,46.97
2023-08-12T13:05:01.757Z,47.70
2023-08-12T13:10:03.736Z,47.67
2023-08-12T13:15:05.725Z,48.43
2023-08-12T13:20:08.042Z,47.73
2023-08-12T13:25:09.694Z,46.65
2023-08-12T13:30:14.775Z,48.03
2023-08-12T13:35:16.359Z,47.64
2023-08-12T13:40:18.310Z,47.88
2023-08-12T13:45:19.985Z,48.24
2023-08-12T13:50:21.979Z,45.94
2023-08-12T13:55:23.454Z,45.99
2023-08-12T14:00:25.782Z,45.46
2023-08-12T14:05:27.385Z,48.61
2023-08-12T14:10:28.880Z,47.46
2023-08-12T14:15:30.355Z,48.02
2023-08-12T14:20:31.876Z,48.27
2023-08-12T14:25:33.346Z,46.61
2023-08-12T14:30:35.027Z,46.54
2023-08-12T14:35:36.967Z,46.67
2023-08-12T14:40:38.456Z,46.32
2023-08-12T14:45:39.918Z,46.37
2023-08-12T14:50:41.772Z,46.33
2023-08-12T14:55:43.296Z,44.96
2023-08-12T15:00:45.334Z,47.17
2023-08-12T15:05:47.376Z,47.27
2023-08-12T15:10:48.870Z,45.72
2023-08-12T15:15:51.720Z,46.84
2023-08-12T15:20:53.239Z,46.96
2023-08-12T15:25:54.730Z,46.70
2023-08-12T15:30:56.302Z,47.65
2023-08-12T15:35:57.952Z,47.36
2023-08-12T15:40:59.447Z,47.44
2023-08-12T15:46:00.927Z,46.59
2023-08-12T15:51:03.106Z,46.49
2023-08-12T15:56:04.725Z,47.50
2023-08-12T16:01:07.499Z,47.84
2023-08-12T16:06:09.001Z,47.86
2023-08-12T16:11:10.587Z,47.07
2023-08-12T16:16:12.095Z,47.74
2023-08-12T16:21:13.635Z,47.59
2023-08-12T16:26:15.094Z,48.20
2023-08-12T16:31:16.619Z,48.31
2023-08-12T16:36:18.155Z,49.35
2023-08-12T16:41:19.685Z,49.74
2023-08-12T16:46:23.577Z,49.81
2023-08-12T16:51:25.083Z,50.13
2023-08-12T16:56:26.593Z,50.98
2023-08-12T17:01:28.105Z,50.99
2023-08-12T17:06:29.627Z,51.38
2023-08-12T17:11:31.738Z,51.34
2023-08-12T17:16:33.235Z,51.79
2023-08-12T17:21:34.825Z,52.39
2023-08-12T17:26:36.271Z,52.88
2023-08-12T17:31:37.731Z,53.30
2023-08-12T17:36:39.197Z,53.38
2023-08-12T17:41:40.690Z,55.08
2023-08-12T17:46:43.459Z,55.15
2023-08-12T17:51:45.006Z,55.45
2023-08-12T17:56:46.476Z,55.26
2023-08-12T18:01:48.729Z,56.10
2023-08-12T18:06:50.258Z,56.23
2023-08-12T18:11:51.765Z,56.17
2023-08-12T18:16:53.441Z,56.44
2023-08-12T18:21:55.005Z,56.75
2023-08-12T18:26:57.072Z,56.99
2023-08-12T18:31:59.565Z,57.24
2023-08-12T18:37:01.034Z,57.34
2023-08-12T18:42:02.599Z,57.58
2023-08-12T18:47:04.197Z,57.72
2023-08-12T18:52:05.691Z,57.17
2023-08-12T18:57:07.174Z,57.11
2023-08-12T19:02:09.832Z,57.27
2023-08-12T19:07:11.381Z,57.97
2023-08-12T19:12:13.135Z,57.79
2023-08-12T19:17:14.786Z,58.48
2023-08-12T19:22:16.451Z,58.80
2023-08-12T19:27:18.015Z,58.80
2023-08-12T19:32:19.551Z,59.29
2023-08-12T19:37:21.009Z,59.25
2023-08-12T19:42:22.543Z,59.48
2023-08-12T19:47:24.019Z,59.99
2023-08-12T19:52:25.482Z,60.32
2023-08-12T19:57:27.884Z,60.69
2023-08-12T20:02:38.465Z,60.69
2023-08-12T20:07:42.406Z,60.17
2023-08-12T20:12:44.331Z,62.04
2023-08-12T20:17:46.312Z,61.55
2023-08-12T20:23:03.458Z,62.37
2023-08-12T20:28:07.856Z,61.65
2023-08-12T20:33:09.660Z,61.97
2023-08-12T20:38:11.185Z,62.30
2023-08-12T20:43:12.865Z,62.86
2023-08-12T20:48:14.714Z,63.03
2023-08-12T20:53:16.503Z,64.42
2023-08-12T20:58:17.973Z,65.51
2023-08-12T21:03:19.546Z,64.22
2023-08-12T21:08:21.079Z,66.47
2023-08-12T21:13:22.761Z,65.41
2023-08-12T21:18:25.013Z,65.79
2023-08-12T21:23:26.478Z,65.47
2023-08-12T21:28:27.936Z,64.84
2023-08-12T21:33:29.509Z,63.17
2023-08-12T21:38:31.008Z,63.91
2023-08-12T21:43:32.480Z,62.99
2023-08-12T21:48:33.932Z,62.54
2023-08-12T21:53:35.425Z,63.00
2023-08-12T21:58:36.871Z,62.50
2023-08-12T22:03:38.421Z,62.36
2023-08-12T22:08:39.965Z,63.59
2023-08-12T22:13:41.681Z,63.41
2023-08-12T22:18:43.182Z,63.09
2023-08-12T22:23:44.628Z,64.33
2023-08-12T22:28:46.932Z,64.47
2023-08-12T22:33:48.408Z,64.48
2023-08-12T22:38:49.854Z,64.84
2023-08-12T22:43:51.674Z,64.27
2023-08-12T22:48:53.224Z,64.19
2023-08-12T22:53:54.952Z,64.86
2023-08-12T22:58:57.138Z,65.15
2023-08-12T23:03:58.640Z,64.95
2023-08-12T23:09:00.153Z,64.67
2023-08-12T23:14:01.619Z,64.27
2023-08-12T23:19:03.214Z,64.41
2023-08-12T23:24:04.930Z,63.94
2023-08-12T23:29:07.011Z,64.65
2023-08-12T23:34:08.514Z,64.12
2023-08-12T23:39:10.914Z,63.81
2023-08-12T23:44:12.429Z,64.02
2023-08-12T23:49:13.916Z,63.83
2023-08-12T23:54:15.427Z,63.82
2023-08-12T23:59:16.872Z,63.63
